createdAt,value
2023-02-22T00:02:14.189Z,75.68
2023-02-22T00:04:44.091Z,75.83
2023-02-22T00:07:12.173Z,75.53
2023-02-22T00:09:40.239Z,75.43
2023-02-22T00:12:10.284Z,76.32
2023-02-22T00:14:38.429Z,77.10
2023-02-22T00:17:06.481Z,77.67
2023-02-22T00:19:35.353Z,78.41
2023-02-22T00:22:04.817Z,78.78
2023-02-22T00:24:36.248Z,79.27
2023-02-22T00:27:04.866Z,79.54
2023-02-22T00:29:34.579Z,79.70
2023-02-22T00:32:02.831Z,79.76
2023-02-22T00:34:31.008Z,79.09
2023-02-22T00:37:03.107Z,80.78
2023-02-22T00:39:32.665Z,80.51
2023-02-22T00:42:01.323Z,80.22
2023-02-22T00:44:29.938Z,80.07
2023-02-22T00:46:58.148Z,79.69
2023-02-22T00:49:26.625Z,79.84
2023-02-22T00:51:54.968Z,78.87
2023-02-22T00:54:23.469Z,79.63
2023-02-22T00:56:53.772Z,79.80
2023-02-22T00:59:21.898Z,79.83
2023-02-22T01:01:49.998Z,80.12
2023-02-22T01:04:18.534Z,79.97
2023-02-22T01:06:46.708Z,79.41
2023-02-22T01:09:14.773Z,79.22
2023-02-22T01:11:42.930Z,78.93
2023-02-22T01:14:12.592Z,79.02
2023-02-22T01:16:40.668Z,80.28
2023-02-22T01:19:09.064Z,79.43
2023-02-22T01:21:37.272Z,79.78
2023-02-22T01:24:05.997Z,80.50
2023-02-22T01:26:34.254Z,80.26
2023-02-22T01:29:02.740Z,79.49
2023-02-22T01:31:32.504Z,79.25
2023-02-22T01:34:00.766Z,79.65
2023-02-22T01:36:28.879Z,79.48
2023-02-22T01:38:56.984Z,81.01
2023-02-22T01:41:25.260Z,79.60
2023-02-22T01:43:53.491Z,80.50
2023-02-22T01:46:24.054Z,79.39
2023-02-22T01:48:57.738Z,79.19
2023-02-22T01:51:28.754Z,79.45
2023-02-22T01:54:01.131Z,79.21
2023-02-22T01:56:32.233Z,78.07
2023-02-22T01:59:03.456Z,78.24
2023-02-22T02:01:32.342Z,79.93
2023-02-22T02:04:05.379Z,79.18
2023-02-22T02:06:36.453Z,78.40
2023-02-22T02:09:11.363Z,78.85
2023-02-22T02:11:41.695Z,78.16
2023-02-22T02:14:11.786Z,79.03
2023-02-22T02:16:43.914Z,78.52
2023-02-22T02:19:23.349Z,76.90
2023-02-22T02:22:22.264Z,77.99
2023-02-22T02:25:10.989Z,77.42
2023-02-22T02:27:57.803Z,78.25
2023-02-22T02:30:57.862Z,78.13
2023-02-22T02:33:32.816Z,78.54
2023-02-22T02:36:10.654Z,77.32
2023-02-22T02:38:46.220Z,77.74
2023-02-22T02:41:18.855Z,78.05
2023-02-22T02:43:53.200Z,77.55
2023-02-22T02:46:26.667Z,78.10
2023-02-22T02:49:00.208Z,79.10
2023-02-22T02:51:32.343Z,78.98
2023-02-22T02:54:03.407Z,79.13
2023-02-22T02:56:32.394Z,78.82
2023-02-22T02:59:00.580Z,78.03
2023-02-22T03:01:46.662Z,77.60
2023-02-22T03:04:31.832Z,78.19
2023-02-22T03:07:13.174Z,77.81
2023-02-22T03:09:53.190Z,77.32
2023-02-22T03:12:33.748Z,77.37
2023-02-22T03:15:11.048Z,79.22
2023-02-22T03:17:48.947Z,79.00
2023-02-22T03:20:31.902Z,78.37
2023-02-22T03:23:06.212Z,78.23
2023-02-22T03:25:39.842Z,77.98
2023-02-22T03:28:13.186Z,77.13
2023-02-22T03:30:47.003Z,77.75
2023-02-22T03:33:28.302Z,77.55
2023-02-22T03:36:04.745Z,78.12
2023-02-22T03:38:37.344Z,78.59
2023-02-22T03:41:09.020Z,78.31
2023-02-22T03:43:41.429Z,79.59
2023-02-22T03:46:12.433Z,79.55
2023-02-22T03:48:48.084Z,79.23
2023-02-22T03:51:19.348Z,79.41
2023-02-22T03:53:48.157Z,78.90
2023-02-22T03:56:22.012Z,79.31
2023-02-22T03:58:51.667Z,80.12
2023-02-22T04:01:23.948Z,81.10
2023-02-22T04:03:52.508Z,81.66
2023-02-22T04:06:22.157Z,81.55
2023-02-22T04:08:50.501Z,81.55
2023-02-22T04:11:18.763Z,81.30
2023-02-22T04:13:46.850Z,81.35
2023-02-22T04:16:14.975Z,80.35
2023-02-22T04:18:43.091Z,80.77
2023-02-22T04:21:11.354Z,81.63
2023-02-22T04:23:41.064Z,82.20
2023-02-22T04:26:09.120Z,81.87
2023-02-22T04:28:37.338Z,80.75
2023-02-22T04:31:05.625Z,81.45
2023-02-22T04:33:34.123Z,81.08
2023-02-22T04:36:02.278Z,80.20
2023-02-22T04:38:30.434Z,80.97
2023-02-22T04:40:59.952Z,80.69
2023-02-22T04:43:28.010Z,81.96
2023-02-22T04:45:56.076Z,83.18
2023-02-22T04:48:24.300Z,84.00
2023-02-22T04:50:52.472Z,84.33
2023-02-22T04:53:20.764Z,84.31
2023-02-22T04:55:49.155Z,82.70
2023-02-22T04:58:19.106Z,83.28
2023-02-22T05:00:47.194Z,83.48
2023-02-22T05:03:15.695Z,83.64
2023-02-22T05:05:44.096Z,83.41
2023-02-22T05:08:12.257Z,84.25
2023-02-22T05:10:40.275Z,84.24
2023-02-22T05:13:09.417Z,83.82
2023-02-22T05:15:38.906Z,84.91
2023-02-22T05:18:07.058Z,83.16
2023-02-22T05:20:36.700Z,83.99
2023-02-22T05:23:05.883Z,84.57
2023-02-22T05:25:34.542Z,83.32
2023-02-22T05:28:04.771Z,84.89
2023-02-22T05:30:35.812Z,84.17
2023-02-22T05:33:05.432Z,84.23
2023-02-22T05:35:34.291Z,85.09
2023-02-22T05:38:03.917Z,84.60
2023-02-22T05:40:32.596Z,84.80
2023-02-22T05:43:01.557Z,84.18
2023-02-22T05:45:30.447Z,83.77
2023-02-22T05:47:58.843Z,85.01
2023-02-22T05:50:28.398Z,85.93
2023-02-22T05:52:57.262Z,83.80
2023-02-22T05:55:25.745Z,83.42
2023-02-22T05:57:54.289Z,84.44
2023-02-22T06:00:24.792Z,81.83
2023-02-22T06:02:57.256Z,81.17
2023-02-22T06:05:25.992Z,80.45
2023-02-22T06:07:56.727Z,78.70
2023-02-22T06:10:24.864Z,78.14
2023-02-22T06:12:55.646Z,77.38
2023-02-22T06:15:26.526Z,75.26
2023-02-22T06:17:55.779Z,74.21
2023-02-22T06:20:26.482Z,74.15
2023-02-22T06:22:57.822Z,71.41
2023-02-22T06:25:31.254Z,71.87
2023-02-22T06:27:59.591Z,71.73
2023-02-22T06:30:28.777Z,70.98
2023-02-22T06:32:56.970Z,69.94
2023-02-22T06:35:25.610Z,69.61
2023-02-22T06:37:55.520Z,67.67
2023-02-22T06:40:24.106Z,66.60
2023-02-22T06:42:53.791Z,66.89
2023-02-22T06:45:22.280Z,67.02
2023-02-22T06:47:51.067Z,64.56
2023-02-22T06:50:22.666Z,65.57
2023-02-22T06:52:50.779Z,63.96
2023-02-22T06:55:22.130Z,63.04
2023-02-22T06:57:51.152Z,62.85
2023-02-22T07:00:21.736Z,63.36
2023-02-22T07:02:50.254Z,62.82
2023-02-22T07:05:20.619Z,61.98
2023-02-22T07:07:49.759Z,61.65
2023-02-22T07:10:23.106Z,61.21
2023-02-22T07:12:52.633Z,60.36
2023-02-22T07:15:23.701Z,58.79
2023-02-22T07:17:53.702Z,59.17
2023-02-22T07:20:22.972Z,59.58
2023-02-22T07:22:52.159Z,58.22
2023-02-22T07:25:22.330Z,58.73
2023-02-22T07:27:52.861Z,57.29
2023-02-22T07:30:25.554Z,59.10
2023-02-22T07:32:54.856Z,58.76
2023-02-22T07:35:26.756Z,57.67
2023-02-22T07:37:56.131Z,57.67
2023-02-22T07:40:28.105Z,57.29
2023-02-22T07:42:59.589Z,57.54
2023-02-22T07:45:30.106Z,58.19
2023-02-22T07:47:59.315Z,57.82
2023-02-22T07:50:30.261Z,57.29
2023-02-22T07:53:00.858Z,57.17
2023-02-22T07:55:32.405Z,58.59
2023-02-22T07:58:02.398Z,57.36
2023-02-22T08:00:33.703Z,56.77
2023-02-22T08:03:03.702Z,57.37
2023-02-22T08:05:33.027Z,57.40
2023-02-22T08:08:01.526Z,57.91
2023-02-22T08:10:32.400Z,58.11
2023-02-22T08:13:01.041Z,58.09
2023-02-22T08:15:31.377Z,59.17
2023-02-22T08:18:01.118Z,60.65
2023-02-22T08:20:29.801Z,61.61
2023-02-22T08:22:59.040Z,60.08
2023-02-22T08:25:29.548Z,59.90
2023-02-22T08:28:02.219Z,58.80
2023-02-22T08:30:32.068Z,57.95
2023-02-22T08:33:02.615Z,57.72
2023-02-22T08:35:33.070Z,59.25
2023-02-22T08:38:03.645Z,59.82
2023-02-22T08:40:34.077Z,58.97
2023-02-22T08:43:04.599Z,59.29
2023-02-22T08:45:32.678Z,60.27
2023-02-22T08:48:01.034Z,58.30
2023-02-22T08:50:32.188Z,58.08
2023-02-22T08:53:02.576Z,58.20
2023-02-22T08:55:33.364Z,57.91
2023-02-22T08:58:04.796Z,57.11
2023-02-22T09:00:34.731Z,56.85
2023-02-22T09:03:03.594Z,58.40
2023-02-22T09:05:32.674Z,57.99
2023-02-22T09:08:01.171Z,56.97
2023-02-22T09:10:31.739Z,56.42
2023-02-22T09:13:01.605Z,55.32
2023-02-22T09:15:32.546Z,56.53
2023-02-22T09:18:01.907Z,55.56
2023-02-22T09:20:30.545Z,54.26
2023-02-22T09:22:59.671Z,53.98
2023-02-22T09:25:27.818Z,53.75
2023-02-22T09:27:57.752Z,53.20
2023-02-22T09:30:32.315Z,53.63
2023-02-22T09:33:04.323Z,53.12
2023-02-22T09:35:36.607Z,52.11
2023-02-22T09:38:06.527Z,51.24
2023-02-22T09:40:41.567Z,51.78
2023-02-22T09:43:31.867Z,50.57
2023-02-22T09:46:20.672Z,49.93
2023-02-22T09:49:17.866Z,50.10
2023-02-22T09:51:52.799Z,48.88
2023-02-22T09:54:26.188Z,47.99
2023-02-22T09:56:59.001Z,49.18
2023-02-22T09:59:33.220Z,49.44
2023-02-22T10:02:06.981Z,48.92
2023-02-22T10:04:44.882Z,49.31
2023-02-22T10:07:19.662Z,49.58
2023-02-22T10:09:50.874Z,48.92
2023-02-22T10:12:29.723Z,49.55
2023-02-22T10:15:19.820Z,49.12
2023-02-22T10:17:58.953Z,48.67
2023-02-22T10:20:44.577Z,49.55
2023-02-22T10:23:23.320Z,48.36
2023-02-22T10:25:58.549Z,47.04
2023-02-22T10:28:31.893Z,47.84
2023-02-22T10:31:06.557Z,47.81
2023-02-22T10:33:39.790Z,47.60
2023-02-22T10:36:20.173Z,48.06
2023-02-22T10:38:55.584Z,48.09
2023-02-22T10:41:30.465Z,48.91
2023-02-22T10:43:59.379Z,47.11
2023-02-22T10:46:30.727Z,47.66
2023-02-22T10:49:04.137Z,47.90
2023-02-22T10:51:34.269Z,47.74
2023-02-22T10:54:26.840Z,48.45
2023-02-22T10:56:57.380Z,47.66
2023-02-22T10:59:30.716Z,47.92
2023-02-22T11:01:58.973Z,46.19
2023-02-22T11:04:28.083Z,46.63
2023-02-22T11:07:11.803Z,46.81
2023-02-22T11:09:50.709Z,47.20
2023-02-22T11:12:22.134Z,47.21
2023-02-22T11:14:50.296Z,46.50
2023-02-22T11:17:26.362Z,45.78
2023-02-22T11:19:54.666Z,44.60
2023-02-22T11:22:29.533Z,44.10
2023-02-22T11:25:02.774Z,44.05
2023-02-22T11:27:39.679Z,44.11
2023-02-22T11:30:22.558Z,44.52
2023-02-22T11:32:54.817Z,46.47
2023-02-22T11:35:50.647Z,46.11
2023-02-22T11:38:23.682Z,45.68
2023-02-22T11:41:15.787Z,46.33
2023-02-22T11:43:45.501Z,45.54
2023-02-22T11:46:18.818Z,45.38
2023-02-22T11:48:57.372Z,44.69
2023-02-22T11:51:40.871Z,43.98
2023-02-22T11:54:32.985Z,43.84
2023-02-22T11:57:16.210Z,43.15
2023-02-22T11:59:55.858Z,43.61
2023-02-22T12:02:34.734Z,44.11
2023-02-22T12:05:26.637Z,43.09
2023-02-22T12:08:19.296Z,43.51
2023-02-22T12:11:01.486Z,42.22
2023-02-22T12:13:45.206Z,43.14
2023-02-22T12:16:22.855Z,42.73
2023-02-22T12:19:08.936Z,43.44
2023-02-22T12:21:42.284Z,44.60
2023-02-22T12:24:16.648Z,44.05
2023-02-22T12:26:50.210Z,44.13
2023-02-22T12:29:29.325Z,44.27
2023-02-22T12:32:03.681Z,44.36
2023-02-22T12:34:38.441Z,43.63
2023-02-22T12:37:14.905Z,44.08
2023-02-22T12:39:53.752Z,43.72
2023-02-22T12:42:30.313Z,44.46
2023-02-22T12:45:08.332Z,44.28
2023-02-22T12:47:42.038Z,44.23
2023-02-22T12:50:19.937Z,44.95
2023-02-22T12:52:55.009Z,44.69
2023-02-22T12:55:26.507Z,44.19
2023-02-22T12:58:03.964Z,44.35
2023-02-22T13:00:40.854Z,44.58
2023-02-22T13:03:28.657Z,44.06
2023-02-22T13:06:06.464Z,44.32
2023-02-22T13:08:43.197Z,44.96
2023-02-22T13:11:19.447Z,45.34
2023-02-22T13:14:01.842Z,45.25
2023-02-22T13:16:43.094Z,44.99
2023-02-22T13:19:21.157Z,45.25
2023-02-22T13:21:53.383Z,45.30
2023-02-22T13:24:27.144Z,45.55
2023-02-22T13:27:01.720Z,45.22
2023-02-22T13:29:35.886Z,45.07
2023-02-22T13:32:21.307Z,45.24
2023-02-22T13:35:14.108Z,45.58
2023-02-22T13:38:08.636Z,45.49
2023-02-22T13:40:54.369Z,46.47
2023-02-22T13:43:37.037Z,46.21
2023-02-22T13:46:40.474Z,46.57
2023-02-22T13:49:34.921Z,46.91
2023-02-22T13:52:08.103Z,46.32
2023-02-22T13:54:43.098Z,46.52
2023-02-22T13:57:30.951Z,46.55
2023-02-22T14:00:23.986Z,46.47
2023-02-22T14:03:03.866Z,46.85
2023-02-22T14:05:57.315Z,47.49
2023-02-22T14:08:47.362Z,47.85
2023-02-22T14:11:44.306Z,47.69
2023-02-22T14:14:17.357Z,46.98
2023-02-22T14:17:23.820Z,47.84
2023-02-22T14:20:32.521Z,48.14
2023-02-22T14:23:35.114Z,48.15
2023-02-22T14:26:13.950Z,48.29
2023-02-22T14:28:53.555Z,48.20
2023-02-22T14:31:35.316Z,48.08
2023-02-22T14:34:10.470Z,49.05
2023-02-22T14:36:45.985Z,48.95
2023-02-22T14:39:20.721Z,48.80
2023-02-22T14:41:54.951Z,49.56
2023-02-22T14:44:27.468Z,48.99
2023-02-22T14:47:02.382Z,48.66
2023-02-22T14:49:34.310Z,49.28
2023-02-22T14:52:09.317Z,49.26
2023-02-22T14:54:52.991Z,49.89
2023-02-22T14:57:25.024Z,49.81
2023-02-22T15:00:12.014Z,50.05
2023-02-22T15:02:41.658Z,50.64
2023-02-22T15:05:14.910Z,51.19
2023-02-22T15:07:52.371Z,51.41
2023-02-22T15:10:27.481Z,51.50
2023-02-22T15:13:10.784Z,51.30
2023-02-22T15:15:44.002Z,51.02
2023-02-22T15:18:23.478Z,51.04
2023-02-22T15:20:56.373Z,51.88
2023-02-22T15:23:30.464Z,51.79
2023-02-22T15:25:59.699Z,52.01
2023-02-22T15:28:31.253Z,52.55
2023-02-22T15:31:24.280Z,52.57
2023-02-22T15:33:55.479Z,52.25
2023-02-22T15:36:28.230Z,53.08
2023-02-22T15:39:08.811Z,53.19
2023-02-22T15:41:38.328Z,53.12
2023-02-22T15:44:22.680Z,53.21
2023-02-22T15:46:54.524Z,53.75
2023-02-22T15:49:24.588Z,54.09
2023-02-22T15:52:19.762Z,54.24
2023-02-22T15:54:50.759Z,54.68
2023-02-22T15:57:23.116Z,54.80
2023-02-22T15:59:54.286Z,54.76
2023-02-22T16:02:35.243Z,55.73
2023-02-22T16:05:08.663Z,54.75
2023-02-22T16:07:45.541Z,55.63
2023-02-22T16:10:26.387Z,58.38
2023-02-22T16:13:19.099Z,58.82
2023-02-22T16:15:58.581Z,57.80
2023-02-22T16:18:33.347Z,57.31
2023-02-22T16:21:07.818Z,57.80
2023-02-22T16:23:46.887Z,58.83
2023-02-22T16:26:24.382Z,59.02
2023-02-22T16:28:58.173Z,58.67
2023-02-22T16:31:28.030Z,60.98
2023-02-22T16:33:56.440Z,61.50
2023-02-22T16:36:38.261Z,61.08
2023-02-22T16:39:07.337Z,60.67
2023-02-22T16:41:35.731Z,60.87
2023-02-22T16:44:07.930Z,63.04
2023-02-22T16:46:38.164Z,63.72
2023-02-22T16:49:06.647Z,63.59
2023-02-22T16:51:41.288Z,63.50
2023-02-22T16:54:13.386Z,63.54
2023-02-22T16:56:42.420Z,63.73
2023-02-22T16:59:15.374Z,64.37
2023-02-22T17:01:44.223Z,63.85
2023-02-22T17:04:17.960Z,64.38
2023-02-22T17:06:46.567Z,63.52
2023-02-22T17:09:15.434Z,63.43
2023-02-22T17:11:44.260Z,63.61
2023-02-22T17:14:19.433Z,64.27
2023-02-22T17:16:47.796Z,64.37
2023-02-22T17:19:18.123Z,64.23
2023-02-22T17:21:46.658Z,63.50
2023-02-22T17:24:16.391Z,62.84
2023-02-22T17:26:44.776Z,63.13
2023-02-22T17:29:15.399Z,62.22
2023-02-22T17:31:43.697Z,62.59
2023-02-22T17:34:12.058Z,62.90
2023-02-22T17:36:40.199Z,64.07
2023-02-22T17:39:10.675Z,63.97
2023-02-22T17:41:40.717Z,63.78
2023-02-22T17:44:09.601Z,64.76
2023-02-22T17:46:41.364Z,64.47
2023-02-22T17:49:09.777Z,65.77
2023-02-22T17:51:41.309Z,65.68
2023-02-22T17:54:10.542Z,66.33
2023-02-22T17:56:38.750Z,66.50
2023-02-22T17:59:09.221Z,68.21
2023-02-22T18:01:39.106Z,67.07
2023-02-22T18:04:07.524Z,66.72
2023-02-22T18:06:36.391Z,66.64
2023-02-22T18:09:10.775Z,67.68
2023-02-22T18:11:40.654Z,67.96
2023-02-22T18:14:10.918Z,69.33
2023-02-22T18:16:41.600Z,68.33
2023-02-22T18:19:09.803Z,69.21
2023-02-22T18:21:38.741Z,68.43
2023-02-22T18:24:07.752Z,67.94
2023-02-22T18:26:35.858Z,68.39
2023-02-22T18:29:04.264Z,70.04
2023-02-22T18:31:32.823Z,69.20
2023-02-22T18:34:03.272Z,68.81
2023-02-22T18:36:32.510Z,69.48
2023-02-22T18:39:00.831Z,70.62
2023-02-22T18:41:28.957Z,70.78
2023-02-22T18:44:00.475Z,71.40
2023-02-22T18:46:30.493Z,72.45
2023-02-22T18:48:58.659Z,72.94
2023-02-22T18:51:28.721Z,73.30
2023-02-22T18:54:00.750Z,74.15
2023-02-22T18:56:30.963Z,74.16
2023-02-22T18:59:00.829Z,74.38
2023-02-22T19:01:29.229Z,74.09
2023-02-22T19:03:57.916Z,73.57
2023-02-22T19:06:27.757Z,73.58
2023-02-22T19:08:55.777Z,73.38
2023-02-22T19:11:25.669Z,73.03
2023-02-22T19:13:57.484Z,73.08
2023-02-22T19:16:28.347Z,73.74
2023-02-22T19:18:58.625Z,74.19
2023-02-22T19:21:30.135Z,75.54
2023-02-22T19:23:58.966Z,75.59
2023-02-22T19:26:29.504Z,76.05
2023-02-22T19:28:59.872Z,75.70
2023-02-22T19:31:31.602Z,75.48
2023-02-22T19:34:02.239Z,74.66
2023-02-22T19:36:32.664Z,75.29
2023-02-22T19:39:02.219Z,75.29
2023-02-22T19:41:30.659Z,76.40
2023-02-22T19:43:59.052Z,77.52
2023-02-22T19:46:27.197Z,77.79
2023-02-22T19:48:56.739Z,79.07
2023-02-22T19:51:27.946Z,79.32
2023-02-22T19:54:00.224Z,78.60
2023-02-22T19:56:30.302Z,79.45
2023-02-22T19:59:00.068Z,83.80
2023-02-22T20:01:30.373Z,89.86
2023-02-22T20:04:00.805Z,90.43
2023-02-22T20:06:31.097Z,90.26
2023-02-22T20:09:00.935Z,89.32
2023-02-22T20:11:29.594Z,88.93
2023-02-22T20:13:57.709Z,88.05
2023-02-22T20:16:25.797Z,87.11
2023-02-22T20:18:54.587Z,86.29
2023-02-22T20:21:28.013Z,85.51
2023-02-22T20:23:57.334Z,85.36
2023-02-22T20:26:29.332Z,84.93
2023-02-22T20:28:57.622Z,84.44
2023-02-22T20:31:25.860Z,84.36
2023-02-22T20:33:55.792Z,83.71
2023-02-22T20:36:24.824Z,83.02
2023-02-22T20:38:54.355Z,83.09
2023-02-22T20:41:25.459Z,84.19
2023-02-22T20:43:56.441Z,83.89
2023-02-22T20:46:25.148Z,82.34
2023-02-22T20:48:56.857Z,82.31
2023-02-22T20:51:25.888Z,82.08
2023-02-22T20:53:53.859Z,80.75
2023-02-22T20:56:23.212Z,81.53
2023-02-22T20:58:54.291Z,81.52
2023-02-22T21:01:24.041Z,81.08
2023-02-22T21:03:52.476Z,81.41
2023-02-22T21:06:23.030Z,81.47
2023-02-22T21:08:53.733Z,81.07
2023-02-22T21:11:23.413Z,80.72
2023-02-22T21:13:51.857Z,80.83
2023-02-22T21:16:23.668Z,80.61
2023-02-22T21:18:54.337Z,80.66
2023-02-22T21:21:23.063Z,80.72
2023-02-22T21:23:52.585Z,80.26
2023-02-22T21:26:24.272Z,80.61
2023-02-22T21:28:52.607Z,80.36
2023-02-22T21:31:23.423Z,81.14
2023-02-22T21:33:55.117Z,80.03
2023-02-22T21:36:25.776Z,79.79
2023-02-22T21:38:55.430Z,79.93
2023-02-22T21:41:27.617Z,80.79
2023-02-22T21:43:57.074Z,81.10
2023-02-22T21:46:30.098Z,80.97
2023-02-22T21:48:59.922Z,80.46
2023-02-22T21:51:32.139Z,80.57
2023-02-22T21:54:02.294Z,81.38
2023-02-22T21:56:32.512Z,80.62
2023-02-22T21:59:03.070Z,81.65
2023-02-22T22:01:35.026Z,80.01
2023-02-22T22:04:06.376Z,81.14
2023-02-22T22:06:35.757Z,80.32
2023-02-22T22:09:05.268Z,80.52
2023-02-22T22:11:33.291Z,80.93
2023-02-22T22:14:01.395Z,81.54
2023-02-22T22:16:30.309Z,80.36
2023-02-22T22:18:58.507Z,80.92
2023-02-22T22:21:27.907Z,81.12
2023-02-22T22:23:56.553Z,81.02
2023-02-22T22:26:25.897Z,80.76
2023-02-22T22:28:56.146Z,80.44
2023-02-22T22:31:26.241Z,79.46
2023-02-22T22:33:56.401Z,79.19
2023-02-22T22:36:26.715Z,78.49
2023-02-22T22:38:58.793Z,78.10
2023-02-22T22:41:29.170Z,78.88
2023-02-22T22:43:57.455Z,79.08
2023-02-22T22:46:25.476Z,78.98
2023-02-22T22:48:53.502Z,78.48
2023-02-22T22:51:23.099Z,78.41
2023-02-22T22:53:53.062Z,78.22
2023-02-22T22:56:26.625Z,77.61
2023-02-22T22:58:56.124Z,76.98
2023-02-22T23:01:27.744Z,77.20
2023-02-22T23:04:00.584Z,76.38
2023-02-22T23:06:33.267Z,75.50
2023-02-22T23:09:10.333Z,74.99
2023-02-22T23:11:44.935Z,76.09
2023-02-22T23:14:14.018Z,75.23
2023-02-22T23:16:42.982Z,74.31
2023-02-22T23:19:11.244Z,73.46
2023-02-22T23:21:42.752Z,72.90
2023-02-22T23:24:15.302Z,72.86
2023-02-22T23:26:48.819Z,72.90
2023-02-22T23:29:18.113Z,72.53
2023-02-22T23:31:48.647Z,73.14
2023-02-22T23:34:17.548Z,73.65
2023-02-22T23:36:46.837Z,73.47
2023-02-22T23:39:16.248Z,73.86
2023-02-22T23:41:45.745Z,74.76
2023-02-22T23:44:17.824Z,74.57
2023-02-22T23:46:48.633Z,74.55
2023-02-22T23:49:20.301Z,74.69
2023-02-22T23:51:49.589Z,76.13
2023-02-22T23:54:20.480Z,76.00
2023-02-22T23:56:57.089Z,75.99
2023-02-22T23:59:26.473Z,76.61
